Time;durP1;ratioP1;P1;durP2;ratioP2;P2;SDS_P1;SDS_P2;PMS_P1;PMS_P2;Temp;Humidity;BMP_temperature;BMP_pressure;BME280_temperature;BME280_humidity;BME280_pressure;Samples;Min_cycle;Max_cycle;Signal;HPM_P1;HPM_P2
2022/01/30 00:01:31;;;;;;;43.10;6.18;;;4.20;64.10;;;;;;4186063;28;20659;-80
2022/01/30 00:03:31;;;;;;;49.80;6.13;;;4.20;64.40;;;;;;4167835;28;20112;-80
2022/01/30 00:05:34;;;;;;;45.35;6.50;;;4.30;63.30;;;;;;4185925;28;20399;-80
2022/01/30 00:07:35;;;;;;;55.45;6.80;;;4.20;63.30;;;;;;4182160;28;20875;-80
2022/01/30 00:09:35;;;;;;;40.88;5.55;;;4.30;62.80;;;;;;4183756;28;20028;-80
2022/01/30 00:11:39;;;;;;;50.03;7.75;;;4.40;62.70;;;;;;4185219;28;20036;-80
2022/01/30 00:13:39;;;;;;;;;;;4.40;62.10;;;;;;4185993;28;20036;-80
2022/01/30 00:15:52;;;;;;;54.53;8.25;;;4.40;62.00;;;;;;4184600;28;20581;-80
2022/01/30 00:18:07;;;;;;;54.17;7.47;;;4.40;61.90;;;;;;4183681;28;20146;-79
2022/01/30 00:20:14;;;;;;;54.55;8.15;;;4.50;62.10;;;;;;4184269;28;20560;-80
2022/01/30 00:22:38;;;;;;;41.58;5.50;;;4.50;61.70;;;;;;4184918;28;20028;-80
2022/01/30 00:25:02;;;;;;;40.95;6.53;;;4.50;61.60;;;;;;4185215;28;20032;-81
2022/01/30 00:27:03;;;;;;;40.17;6.80;;;4.60;61.60;;;;;;4170801;28;20532;-81
2022/01/30 00:29:06;;;;;;;36.45;6.00;;;4.60;61.20;;;;;;4185251;28;20123;-82
2022/01/30 00:31:06;;;;;;;43.17;6.63;;;4.60;61.10;;;;;;4183585;28;20221;-81
2022/01/30 00:33:07;;;;;;;56.33;7.75;;;4.60;61.10;;;;;;4184671;28;20111;-82
2022/01/30 00:35:11;;;;;;;53.10;6.15;;;4.60;61.10;;;;;;4183414;28;20032;-80
2022/01/30 00:37:11;;;;;;;50.45;7.40;;;4.70;61.40;;;;;;4183194;28;20433;-80
2022/01/30 00:39:12;;;;;;;60.13;7.97;;;4.70;61.30;;;;;;4185605;28;20078;-80
2022/01/30 00:41:13;;;;;;;55.65;9.38;;;4.70;61.30;;;;;;4200351;28;20106;-80
2022/01/30 00:43:14;;;;;;;54.03;6.60;;;4.70;61.40;;;;;;4165069;28;20020;-80
2022/01/30 00:45:15;;;;;;;54.88;8.73;;;4.70;61.80;;;;;;4184763;28;20021;-80
2022/01/30 00:47:15;;;;;;;54.97;7.30;;;4.70;61.50;;;;;;4185053;28;20524;-80
2022/01/30 00:49:16;;;;;;;57.83;8.82;;;4.70;61.90;;;;;;4184286;28;20024;-80
2022/01/30 00:51:17;;;;;;;52.10;8.20;;;4.70;61.90;;;;;;4183947;28;20032;-80
2022/01/30 00:53:17;;;;;;;54.33;7.80;;;4.70;61.70;;;;;;4183892;28;20024;-80
2022/01/30 00:55:18;;;;;;;54.10;8.13;;;4.80;61.60;;;;;;4182957;28;20108;-81
2022/01/30 00:57:18;;;;;;;48.97;7.50;;;4.70;61.10;;;;;;4184024;28;21300;-80
2022/01/30 00:59:19;;;;;;;58.90;8.23;;;4.80;61.10;;;;;;4185116;28;20071;-80
2022/01/30 01:01:20;;;;;;;40.92;6.95;;;4.80;61.00;;;;;;4192026;28;20560;-81
2022/01/30 01:03:20;;;;;;;51.42;6.95;;;4.80;61.20;;;;;;4193093;28;20061;-80
2022/01/30 01:05:21;;;;;;;58.83;8.00;;;4.80;61.60;;;;;;4190834;28;20564;-80
2022/01/30 01:07:23;;;;;;;63.72;8.55;;;4.90;61.50;;;;;;4192000;28;20036;-80
2022/01/30 01:09:31;;;;;;;58.28;8.43;;;4.90;61.50;;;;;;4185007;28;21086;-80
2022/01/30 01:25:08;;;;;;;53.33;9.07;;;4.70;65.90;;;;;;4181996;28;22125;-79
2022/01/30 01:27:08;;;;;;;67.93;10.00;;;4.70;66.30;;;;;;4186217;28;20048;-80
2022/01/30 01:29:09;;;;;;;63.58;8.93;;;4.70;66.70;;;;;;4200339;28;20028;-79
2022/01/30 01:31:10;;;;;;;69.78;10.10;;;4.60;67.20;;;;;;4185278;28;20047;-81
2022/01/30 01:33:10;;;;;;;63.05;8.73;;;4.70;67.50;;;;;;4184794;28;20078;-80
2022/01/30 01:35:11;;;;;;;61.50;9.18;;;4.60;67.80;;;;;;4183993;28;20043;-80
2022/01/30 01:37:12;;;;;;;73.70;11.10;;;4.70;67.50;;;;;;4184676;28;20031;-80
2022/01/30 01:39:12;;;;;;;64.05;8.43;;;4.70;67.00;;;;;;4170304;28;20126;-80
2022/01/30 01:41:17;;;;;;;73.75;10.23;;;4.70;66.40;;;;;;4187369;28;20032;-80
2022/01/30 01:43:19;;;;;;;72.28;9.35;;;4.70;66.10;;;;;;4170955;28;21277;-80
2022/01/30 01:45:22;;;;;;;65.40;9.15;;;4.80;66.30;;;;;;4186174;28;20032;-81
2022/01/30 01:47:28;;;;;;;68.25;9.68;;;4.80;65.90;;;;;;4187483;28;20032;-81
2022/01/30 01:49:29;;;;;;;67.15;8.82;;;4.80;65.90;;;;;;4186857;28;20017;-80
2022/01/30 01:51:31;;;;;;;77.88;9.20;;;4.80;66.30;;;;;;4177370;28;20045;-80
2022/01/30 01:53:32;;;;;;;79.47;10.38;;;4.80;66.30;;;;;;4186867;28;20054;-80
2022/01/30 01:55:33;;;;;;;66.00;9.18;;;4.80;67.30;;;;;;4186807;28;20499;-80
2022/01/30 01:57:33;;;;;;;69.03;10.25;;;4.90;66.90;;;;;;4187744;28;20028;-80
2022/01/30 01:59:34;;;;;;;73.25;10.00;;;4.90;66.70;;;;;;4188092;28;20033;-79
2022/01/30 02:01:34;;;;;;;70.47;11.73;;;4.90;66.50;;;;;;4188665;28;20105;-80
2022/01/30 02:03:38;;;;;;;67.22;10.60;;;4.90;66.10;;;;;;4187888;28;20029;-81
2022/01/30 02:05:39;;;;;;;;;;;4.90;66.40;;;;;;4185276;28;20075;-80
2022/01/30 02:09:54;;;;;;;71.28;10.70;;;4.90;66.30;;;;;;4179880;28;20512;-80
2022/01/30 02:11:55;;;;;;;65.28;9.75;;;5.00;66.20;;;;;;4194242;28;20055;-80
2022/01/30 02:27:19;;;;;;;56.88;9.40;;;4.90;70.30;;;;;;4188131;28;20028;-80
2022/01/30 02:29:20;;;;;;;;;;;4.80;69.90;;;;;;4187939;28;20118;-80
2022/01/30 02:31:21;;;;;;;62.25;9.65;;;4.80;69.30;;;;;;4186457;28;20027;-80
2022/01/30 02:33:22;;;;;;;58.75;8.07;;;4.70;69.50;;;;;;4187372;28;20462;-81
2022/01/30 02:35:23;;;;;;;80.75;10.13;;;4.70;69.10;;;;;;4187837;28;20115;-80
2022/01/30 02:37:23;;;;;;;70.03;9.90;;;4.60;68.10;;;;;;4186313;28;20020;-80
2022/01/30 02:39:25;;;;;;;72.20;11.82;;;4.60;68.30;;;;;;4186849;28;20120;-80
2022/01/30 02:41:25;;;;;;;79.50;13.25;;;4.60;68.50;;;;;;4187445;28;20409;-79
2022/01/30 02:43:31;;;;;;;73.63;11.05;;;4.60;68.20;;;;;;4168924;28;20033;-80
2022/01/30 02:45:35;;;;;;;81.75;12.70;;;4.60;68.30;;;;;;4187875;28;20032;-79
2022/01/30 02:51:54;;;;;;;88.50;12.60;;;4.70;66.90;;;;;;4183830;28;20044;-80
2022/01/30 02:54:02;;;;;;;64.03;10.38;;;4.80;66.80;;;;;;4188103;28;20039;-80
2022/01/30 02:56:04;;;;;;;67.55;8.27;;;4.80;66.80;;;;;;4189175;28;20040;-80
2022/01/30 02:58:05;;;;;;;65.38;9.80;;;4.80;66.50;;;;;;4188132;28;20055;-80
2022/01/30 03:00:08;;;;;;;63.53;8.98;;;4.80;66.30;;;;;;4188198;28;20040;-80
2022/01/30 03:02:08;;;;;;;61.42;8.85;;;4.90;66.40;;;;;;4188329;28;20055;-81
2022/01/30 03:04:09;;;;;;;75.55;10.80;;;4.90;66.40;;;;;;4186914;28;20165;-81
2022/01/30 03:06:09;;;;;;;64.40;9.50;;;5.00;66.20;;;;;;4189373;28;20059;-81
2022/01/30 03:08:10;;;;;;;59.83;9.38;;;5.00;66.20;;;;;;4186447;28;20070;-80
2022/01/30 03:10:11;;;;;;;63.42;9.43;;;5.00;66.20;;;;;;4188281;28;20031;-80
2022/01/30 03:12:12;;;;;;;65.78;10.77;;;5.00;65.90;;;;;;4188607;28;20107;-80
2022/01/30 03:14:12;;;;;;;71.15;9.88;;;5.00;65.80;;;;;;4170504;28;20520;-80
2022/01/30 03:16:13;;;;;;;71.88;10.20;;;5.00;65.30;;;;;;4187784;28;20179;-80
2022/01/30 03:18:14;;;;;;;63.58;9.70;;;5.00;65.60;;;;;;4186461;28;20513;-80
2022/01/30 03:20:14;;;;;;;74.15;9.55;;;4.90;65.60;;;;;;4187550;28;20020;-80
2022/01/30 03:22:15;;;;;;;72.97;11.32;;;5.00;65.50;;;;;;4187511;28;20060;-80
2022/01/30 03:24:15;;;;;;;65.35;10.40;;;5.00;65.60;;;;;;4188461;28;20159;-79
2022/01/30 03:26:16;;;;;;;65.07;9.23;;;5.00;65.00;;;;;;4185715;28;20476;-80
2022/01/30 03:28:17;;;;;;;72.43;10.27;;;5.00;65.00;;;;;;4191006;28;20532;-80
2022/01/30 03:30:25;;;;;;;63.00;9.25;;;5.00;65.30;;;;;;4187358;28;20037;-80
2022/01/30 03:32:25;;;;;;;68.43;10.52;;;5.10;65.30;;;;;;4186434;28;20021;-80
2022/01/30 03:34:26;;;;;;;72.95;10.95;;;5.00;65.10;;;;;;4191097;28;20040;-80
2022/01/30 03:36:27;;;;;;;73.35;11.75;;;5.00;65.10;;;;;;4190784;28;20031;-81
2022/01/30 03:38:27;;;;;;;63.42;10.00;;;5.00;64.60;;;;;;4191783;28;20020;-81
2022/01/30 03:40:28;;;;;;;64.65;9.57;;;5.00;63.90;;;;;;4173572;28;20053;-80
2022/01/30 03:42:29;;;;;;;55.95;9.13;;;5.00;63.90;;;;;;4190417;28;20037;-80
2022/01/30 03:44:29;;;;;;;57.33;9.27;;;5.00;63.70;;;;;;4189679;28;20040;-80
2022/01/30 03:46:30;;;;;;;53.53;9.02;;;5.00;63.30;;;;;;4172985;28;20025;-80
2022/01/30 03:48:30;;;;;;;67.15;9.82;;;5.00;63.80;;;;;;4192518;28;20440;-80
2022/01/30 03:50:31;;;;;;;63.17;9.43;;;5.00;63.80;;;;;;4189311;28;20025;-80
2022/01/30 03:52:34;;;;;;;69.93;9.30;;;5.00;64.30;;;;;;4188967;28;20032;-80
2022/01/30 03:54:35;;;;;;;;;;;5.00;64.60;;;;;;4191427;28;20040;-80
2022/01/30 03:56:36;;;;;;;50.13;8.32;;;5.00;64.30;;;;;;4191132;28;19962;-81
2022/01/30 03:58:36;;;;;;;55.13;8.85;;;5.00;64.50;;;;;;4191020;28;20020;-80
2022/01/30 04:00:37;;;;;;;52.38;9.38;;;5.00;63.90;;;;;;4188569;28;20037;-80
2022/01/30 04:02:37;;;;;;;54.70;8.60;;;4.90;64.00;;;;;;4189975;28;20028;-81
2022/01/30 04:04:38;;;;;;;70.78;9.70;;;4.90;64.00;;;;;;4191075;28;20489;-81
2022/01/30 04:06:39;;;;;;;59.85;7.95;;;4.90;64.10;;;;;;4188869;28;20025;-81
2022/01/30 04:08:39;;;;;;;56.15;9.57;;;4.90;64.50;;;;;;4190317;28;20055;-80
2022/01/30 04:10:40;;;;;;;63.80;7.93;;;5.00;65.40;;;;;;4191712;28;20106;-80
2022/01/30 04:12:42;;;;;;;62.35;9.05;;;5.00;64.40;;;;;;4189955;28;20362;-80
2022/01/30 04:14:43;;;;;;;50.42;8.15;;;5.00;63.50;;;;;;4191084;28;20037;-81
2022/01/30 04:16:44;;;;;;;73.75;9.98;;;5.00;63.60;;;;;;4189963;28;20451;-80
2022/01/30 04:18:44;;;;;;;80.45;11.73;;;5.00;64.20;;;;;;4189532;28;20580;-81
2022/01/30 04:20:47;;;;;;;63.85;9.68;;;5.00;65.00;;;;;;4192693;28;20024;-80
2022/01/30 04:22:48;;;;;;;69.82;9.18;;;5.00;65.50;;;;;;4204624;28;20111;-81
2022/01/30 04:24:49;;;;;;;62.55;10.00;;;5.00;65.40;;;;;;4192119;28;20060;-81
2022/01/30 04:26:49;;;;;;;69.72;9.63;;;5.10;65.60;;;;;;4190229;28;20037;-81
2022/01/30 04:28:50;;;;;;;72.25;9.88;;;5.00;65.80;;;;;;4192746;28;20112;-80
2022/01/30 04:30:51;;;;;;;58.40;9.43;;;5.00;66.20;;;;;;4189963;28;20060;-80
2022/01/30 04:32:55;;;;;;;63.92;8.23;;;5.00;65.50;;;;;;4188919;28;20031;-80
2022/01/30 04:34:59;;;;;;;56.50;9.70;;;4.90;65.00;;;;;;4191881;28;20082;-80
2022/01/30 04:37:04;;;;;;;52.08;8.40;;;4.90;64.10;;;;;;4188175;28;20029;-80
2022/01/30 04:39:27;;;;;;;69.47;8.45;;;4.90;64.20;;;;;;4189766;28;20115;-80
2022/01/30 04:53:17;;;;;;;70.03;8.85;;;4.80;65.30;;;;;;4212022;28;20434;-80
2022/01/30 05:04:42;;;;;;;53.40;7.63;;;4.70;65.70;;;;;;4212235;28;20021;-80
2022/01/30 05:07:27;;;;;;;54.13;7.97;;;4.70;66.10;;;;;;4210975;28;20141;-79
2022/01/30 05:09:12;;;;;;;60.45;8.02;;;4.70;66.40;;;;;;4210511;28;20040;-80
2022/01/30 05:11:13;;;;;;;43.03;6.53;;;4.60;66.40;;;;;;4210960;28;20040;-80
2022/01/30 05:13:17;;;;;;;61.85;7.85;;;4.60;66.20;;;;;;4211323;28;20048;-80
2022/01/30 05:15:20;;;;;;;43.97;7.13;;;4.60;66.40;;;;;;4211404;28;20067;-81
2022/01/30 05:17:20;;;;;;;59.45;8.20;;;4.60;66.50;;;;;;4208597;28;20039;-81
2022/01/30 05:19:22;;;;;;;49.85;6.75;;;4.50;67.00;;;;;;4191226;28;20497;-82
2022/01/30 05:21:22;;;;;;;45.67;6.70;;;4.50;67.40;;;;;;4203932;28;20012;-82
2022/01/30 05:23:26;;;;;;;49.15;7.97;;;4.50;67.60;;;;;;4202364;28;20040;-81
2022/01/30 05:25:27;;;;;;;63.17;9.35;;;4.50;67.70;;;;;;4204874;28;20036;-81
2022/01/30 05:27:28;;;;;;;69.25;10.40;;;4.50;67.30;;;;;;4205515;28;20108;-81
2022/01/30 05:29:29;;;;;;;60.33;7.60;;;4.40;67.60;;;;;;4205326;28;20031;-81
2022/01/30 05:31:30;;;;;;;61.75;9.73;;;4.40;67.50;;;;;;4206987;28;20110;-81
2022/01/30 05:33:30;;;;;;;70.82;9.88;;;4.50;67.30;;;;;;4209141;28;20024;-81
2022/01/30 05:35:31;;;;;;;63.70;9.45;;;4.50;67.00;;;;;;4206848;28;20037;-81
2022/01/30 05:37:32;;;;;;;69.45;9.30;;;4.40;66.00;;;;;;4207067;28;20048;-81
2022/01/30 05:39:33;;;;;;;45.47;6.50;;;4.40;65.90;;;;;;4196763;28;20055;-81
2022/01/30 05:41:34;;;;;;;48.60;8.02;;;4.40;65.50;;;;;;4188475;28;20032;-81
2022/01/30 05:43:35;;;;;;;52.40;7.63;;;4.40;65.30;;;;;;4190394;28;20016;-82
2022/01/30 05:45:40;;;;;;;48.30;7.18;;;4.40;65.00;;;;;;4189687;28;20044;-82
2022/01/30 05:47:49;;;;;;;51.25;8.05;;;4.40;64.60;;;;;;4188721;28;20020;-82
2022/01/30 05:49:51;;;;;;;47.40;7.18;;;4.40;64.30;;;;;;4189667;28;20496;-82
2022/01/30 05:51:55;;;;;;;47.30;6.35;;;4.40;63.70;;;;;;4189721;28;20059;-82
2022/01/30 05:53:55;;;;;;;47.97;8.73;;;4.40;63.70;;;;;;4191197;28;20055;-82
2022/01/30 05:55:56;;;;;;;41.28;6.47;;;4.40;62.60;;;;;;4189750;28;20393;-81
2022/01/30 05:57:57;;;;;;;37.90;6.70;;;4.30;62.60;;;;;;4189337;28;20131;-81
2022/01/30 05:59:58;;;;;;;49.17;7.93;;;4.30;62.00;;;;;;4189730;28;20031;-80
2022/01/30 06:01:59;;;;;;;38.75;5.93;;;4.30;61.60;;;;;;4187649;28;20379;-81
2022/01/30 06:03:59;;;;;;;47.75;7.25;;;4.30;61.30;;;;;;4190852;28;20081;-81
2022/01/30 06:06:00;;;;;;;43.58;6.70;;;4.30;61.50;;;;;;4191345;28;20474;-81
2022/01/30 06:08:11;;;;;;;38.05;6.63;;;4.30;61.10;;;;;;4173314;28;20033;-82
2022/01/30 06:10:12;;;;;;;44.75;7.68;;;4.30;61.40;;;;;;4190251;28;20039;-81
2022/01/30 06:12:12;;;;;;;53.38;7.93;;;4.30;61.40;;;;;;4172953;28;20029;-81
2022/01/30 06:14:13;;;;;;;40.88;6.03;;;4.30;61.60;;;;;;4192075;28;20032;-82
2022/01/30 06:16:14;;;;;;;36.63;7.05;;;4.30;61.70;;;;;;4192151;28;20113;-81
2022/01/30 06:18:14;;;;;;;49.28;7.40;;;4.40;61.80;;;;;;4189684;28;20059;-83
2022/01/30 06:20:15;;;;;;;40.70;6.88;;;4.40;61.50;;;;;;4189678;28;20418;-82
2022/01/30 06:22:15;;;;;;;43.00;7.35;;;4.40;61.60;;;;;;4190575;28;20078;-82
2022/01/30 06:24:16;;;;;;;55.55;7.65;;;4.40;61.00;;;;;;4191803;28;20389;-82
2022/01/30 06:26:16;;;;;;;57.38;8.80;;;4.40;61.50;;;;;;4192552;28;20033;-82
2022/01/30 06:28:17;;;;;;;62.03;7.88;;;4.40;61.70;;;;;;4191684;28;20513;-82
2022/01/30 06:30:21;;;;;;;43.08;6.50;;;4.40;61.40;;;;;;4191829;28;20078;-82
2022/01/30 06:32:22;;;;;;;48.80;7.30;;;4.30;60.90;;;;;;4192434;28;20039;-82
2022/01/30 06:34:22;;;;;;;47.05;8.02;;;4.40;61.60;;;;;;4193431;28;20099;-81
2022/01/30 06:36:23;;;;;;;46.58;6.70;;;4.40;61.30;;;;;;4191155;28;20054;-81
2022/01/30 06:38:24;;;;;;;57.08;7.80;;;4.40;61.40;;;;;;4191373;28;20031;-81
2022/01/30 06:40:25;;;;;;;56.45;6.90;;;4.40;61.50;;;;;;4192002;28;20856;-80
2022/01/30 06:42:28;;;;;;;42.20;6.80;;;4.40;61.80;;;;;;4193328;28;20124;-80
2022/01/30 06:44:28;;;;;;;51.92;7.43;;;4.40;61.60;;;;;;4192267;28;20099;-79
2022/01/30 06:46:29;;;;;;;41.17;5.55;;;4.40;61.30;;;;;;4192559;28;20230;-80
2022/01/30 06:48:30;;;;;;;60.92;7.13;;;4.40;60.60;;;;;;4191119;28;20101;-82
2022/01/30 06:50:30;;;;;;;62.70;6.97;;;4.40;60.90;;;;;;4189612;28;20047;-83
2022/01/30 06:52:31;;;;;;;61.70;7.90;;;4.40;61.10;;;;;;4171039;28;20064;-82
2022/01/30 06:54:32;;;;;;;52.88;7.82;;;4.50;60.40;;;;;;4174004;28;20052;-82
2022/01/30 06:56:32;;;;;;;56.65;6.75;;;4.50;60.50;;;;;;4189033;28;20031;-82
2022/01/30 06:58:33;;;;;;;49.58;7.32;;;4.50;60.90;;;;;;4188090;28;20575;-82
2022/01/30 07:00:34;;;;;;;61.65;8.55;;;4.50;61.10;;;;;;4187285;28;20503;-82
2022/01/30 07:02:35;;;;;;;50.25;7.70;;;4.50;60.90;;;;;;4188338;28;20060;-83
2022/01/30 07:04:35;;;;;;;56.95;9.07;;;4.50;60.80;;;;;;4187185;28;20020;-83
2022/01/30 07:06:36;;;;;;;55.45;7.38;;;4.50;60.00;;;;;;4187894;28;20032;-82
2022/01/30 07:08:50;;;;;;;63.42;8.07;;;4.50;60.00;;;;;;4190014;28;20028;-81
2022/01/30 07:10:59;;;;;;;;;;;4.50;59.40;;;;;;4188266;28;20044;-83
2022/01/30 07:13:00;;;;;;;46.20;7.70;;;4.50;59.20;;;;;;4193312;28;19916;-82
2022/01/30 07:15:01;;;;;;;63.33;7.97;;;4.50;58.80;;;;;;4189998;28;20052;-83
2022/01/30 07:17:02;;;;;;;60.53;7.72;;;4.50;58.70;;;;;;4188993;28;20199;-82
2022/01/30 07:19:14;;;;;;;51.67;8.07;;;4.40;58.80;;;;;;4188195;28;20519;-82
2022/01/30 07:21:15;;;;;;;60.00;8.17;;;4.40;58.90;;;;;;4188953;28;20032;-82
2022/01/30 07:23:16;;;;;;;54.72;7.32;;;4.50;59.30;;;;;;4177775;28;20100;-80
2022/01/30 07:25:19;;;;;;;58.28;7.43;;;4.40;59.50;;;;;;4177087;28;20025;-81
2022/01/30 07:27:25;;;;;;;53.58;7.47;;;4.40;59.80;;;;;;4193841;28;20032;-80
2022/01/30 07:29:26;;;;;;;65.45;8.85;;;4.40;60.40;;;;;;4196378;28;20028;-80
2022/01/30 07:31:27;;;;;;;64.50;8.63;;;4.40;60.70;;;;;;4190145;28;20074;-81
2022/01/30 07:33:27;;;;;;;57.78;8.10;;;4.40;60.70;;;;;;4194402;28;20484;-81
2022/01/30 07:35:28;;;;;;;45.63;6.97;;;4.40;60.20;;;;;;4190764;28;20021;-80
2022/01/30 07:37:29;;;;;;;53.75;7.88;;;4.40;59.00;;;;;;4170101;28;20438;-80
2022/01/30 07:39:31;;;;;;;65.80;8.10;;;4.40;58.80;;;;;;4198459;28;20039;-80
2022/01/30 07:41:32;;;;;;;47.72;7.15;;;4.50;59.90;;;;;;4194497;28;20040;-80
2022/01/30 07:43:32;;;;;;;61.78;7.40;;;4.50;59.30;;;;;;4179288;28;20497;-80
2022/01/30 07:45:33;;;;;;;74.68;9.70;;;4.50;59.10;;;;;;4193230;28;20037;-80
2022/01/30 07:47:34;;;;;;;62.08;8.50;;;4.40;57.40;;;;;;4173219;28;20032;-80
2022/01/30 07:49:34;;;;;;;53.50;7.82;;;4.40;56.80;;;;;;4173234;28;20021;-81
2022/01/30 07:51:35;;;;;;;51.05;7.70;;;4.40;56.40;;;;;;4172354;28;20029;-79
2022/01/30 07:53:36;;;;;;;61.03;9.07;;;4.40;56.20;;;;;;4173731;28;20021;-79
2022/01/30 07:55:37;;;;;;;55.08;7.90;;;4.40;55.90;;;;;;4174609;28;20358;-79
2022/01/30 07:57:37;;;;;;;61.88;7.28;;;4.40;56.70;;;;;;4195762;28;20021;-79
2022/01/30 07:59:38;;;;;;;66.00;7.68;;;4.40;56.70;;;;;;4181578;28;20058;-79
2022/01/30 08:01:39;;;;;;;46.60;7.53;;;4.40;56.70;;;;;;4165845;28;20639;-79
2022/01/30 08:03:39;;;;;;;65.60;8.90;;;4.40;56.50;;;;;;4199622;28;20032;-79
2022/01/30 08:05:43;;;;;;;88.20;9.63;;;4.40;56.30;;;;;;4180366;28;22126;-79
2022/01/30 08:07:43;;;;;;;;;;;4.40;56.50;;;;;;4184325;28;20489;-80
2022/01/30 08:09:44;;;;;;;48.72;7.90;;;4.40;56.50;;;;;;4183819;28;19912;-78
2022/01/30 08:11:46;;;;;;;51.03;8.20;;;4.40;56.30;;;;;;4183842;28;20035;-79
2022/01/30 08:13:46;;;;;;;60.95;8.82;;;4.30;56.10;;;;;;4174202;28;20136;-79
2022/01/30 08:15:47;;;;;;;55.30;7.47;;;4.30;56.50;;;;;;4187014;28;20445;-79
2022/01/30 08:17:48;;;;;;;58.47;8.20;;;4.30;56.70;;;;;;4186002;28;20033;-79
2022/01/30 08:19:52;;;;;;;72.32;9.38;;;4.30;56.80;;;;;;4191807;28;20033;-79
2022/01/30 08:21:55;;;;;;;50.85;7.88;;;4.30;56.60;;;;;;4152225;28;20544;-79
2022/01/30 08:23:56;;;;;;;75.32;8.98;;;4.30;56.70;;;;;;4191628;28;20028;-78
2022/01/30 08:25:57;;;;;;;59.22;8.75;;;4.30;57.00;;;;;;4177360;28;20484;-79
2022/01/30 08:28:01;;;;;;;52.35;8.35;;;4.40;56.80;;;;;;4193306;28;20013;-81
2022/01/30 08:30:01;;;;;;;60.22;7.97;;;4.40;57.10;;;;;;4191482;28;20102;-81
2022/01/30 08:32:02;;;;;;;61.00;7.80;;;4.40;57.10;;;;;;4204562;28;20076;-80
2022/01/30 08:34:06;;;;;;;60.35;8.43;;;4.40;57.10;;;;;;4190140;28;20393;-79
2022/01/30 08:36:06;;;;;;;65.68;9.38;;;4.50;57.20;;;;;;4171381;28;20047;-80
2022/01/30 08:38:07;;;;;;;64.53;8.23;;;4.50;57.50;;;;;;4181090;28;20012;-79
2022/01/30 08:40:10;;;;;;;59.60;8.02;;;4.50;57.70;;;;;;4184761;28;20066;-80
2022/01/30 08:42:10;;;;;;;63.13;8.50;;;4.50;57.60;;;;;;4190035;28;20064;-80
2022/01/30 08:44:11;;;;;;;66.78;8.82;;;4.50;57.60;;;;;;4182220;28;20035;-79
2022/01/30 08:46:13;;;;;;;55.83;8.13;;;4.50;57.80;;;;;;4164820;28;20108;-80
2022/01/30 08:48:14;;;;;;;57.58;7.88;;;4.50;58.00;;;;;;4185391;28;20024;-80
2022/01/30 08:50:15;;;;;;;58.85;7.38;;;4.50;57.70;;;;;;4182485;28;20079;-79
2022/01/30 08:52:19;;;;;;;68.38;8.70;;;4.50;58.10;;;;;;4183919;28;20028;-80
2022/01/30 08:54:22;;;;;;;66.75;8.23;;;4.60;58.10;;;;;;4199855;28;20100;-79
2022/01/30 08:56:23;;;;;;;55.95;7.53;;;4.60;58.40;;;;;;4189157;28;20066;-79
2022/01/30 08:58:36;;;;;;;67.47;9.20;;;4.60;58.30;;;;;;4204913;28;20032;-79
2022/01/30 09:00:42;;;;;;;55.95;8.00;;;4.50;58.20;;;;;;4201785;28;20043;-79
2022/01/30 09:02:43;;;;;;;69.50;9.35;;;4.50;58.00;;;;;;4197939;28;20056;-80
2022/01/30 09:04:44;;;;;;;65.60;8.50;;;4.50;57.80;;;;;;4189973;28;20032;-80
2022/01/30 09:06:46;;;;;;;51.45;7.80;;;4.50;58.00;;;;;;4188110;28;20029;-80
2022/01/30 09:09:02;;;;;;;45.75;7.57;;;4.50;57.60;;;;;;4201702;28;20028;-80
2022/01/30 09:11:09;;;;;;;69.25;8.68;;;4.50;57.10;;;;;;4208243;28;20123;-80
2022/01/30 09:13:10;;;;;;;62.15;8.32;;;4.50;57.50;;;;;;4192427;28;20650;-80
2022/01/30 09:15:14;;;;;;;63.40;9.07;;;4.50;57.60;;;;;;4202362;28;20052;-80
2022/01/30 09:17:18;;;;;;;54.30;7.60;;;4.50;57.70;;;;;;4211063;28;20004;-80
2022/01/30 09:19:19;;;;;;;56.78;8.43;;;4.50;57.80;;;;;;4189255;28;20041;-80
2022/01/30 09:21:20;;;;;;;56.90;7.20;;;4.60;58.10;;;;;;4182100;28;20036;-80
2022/01/30 09:23:21;;;;;;;51.95;8.63;;;4.60;58.10;;;;;;4185672;28;20035;-80
2022/01/30 09:25:22;;;;;;;54.50;7.90;;;4.60;58.20;;;;;;4175653;28;20025;-80
2022/01/30 09:27:22;;;;;;;74.13;9.43;;;4.60;58.40;;;;;;4184165;28;20044;-80
2022/01/30 09:29:23;;;;;;;63.70;8.23;;;4.60;58.40;;;;;;4178797;28;20090;-79
2022/01/30 09:31:24;;;;;;;65.88;8.93;;;4.60;58.30;;;;;;4189059;28;20424;-80
2022/01/30 09:33:25;;;;;;;46.22;7.35;;;4.70;58.20;;;;;;4184832;28;20029;-80
2022/01/30 09:35:26;;;;;;;63.47;9.32;;;4.70;58.20;;;;;;4153091;28;20091;-80
2022/01/30 09:37:27;;;;;;;64.63;9.45;;;4.70;58.00;;;;;;4183734;28;20025;-80
2022/01/30 09:39:29;;;;;;;72.30;10.57;;;4.70;58.00;;;;;;4169024;28;20418;-80
2022/01/30 09:41:29;;;;;;;47.78;8.20;;;4.70;57.40;;;;;;4197197;28;20059;-80
2022/01/30 09:43:30;;;;;;;62.78;8.60;;;4.70;57.40;;;;;;4182733;28;20363;-78
2022/01/30 09:45:31;;;;;;;59.85;8.57;;;4.70;57.70;;;;;;4170189;28;20115;-80
2022/01/30 09:47:32;;;;;;;71.03;9.90;;;4.70;57.30;;;;;;4185596;28;20083;-78
2022/01/30 09:49:33;;;;;;;49.88;7.80;;;4.70;57.00;;;;;;4184862;28;20032;-78
2022/01/30 09:51:34;;;;;;;61.17;9.52;;;4.70;57.60;;;;;;4168093;28;20037;-79
2022/01/30 09:53:35;;;;;;;50.95;7.85;;;4.80;57.40;;;;;;4189776;28;20346;-78
2022/01/30 09:55:35;;;;;;;66.45;9.55;;;4.70;57.30;;;;;;4184424;28;20110;-78
2022/01/30 09:57:36;;;;;;;44.08;7.70;;;4.70;57.20;;;;;;4185582;28;20089;-79
2022/01/30 09:59:37;;;;;;;59.22;7.38;;;4.80;57.50;;;;;;4188331;28;20489;-79
2022/01/30 10:01:37;;;;;;;47.15;8.27;;;4.80;57.10;;;;;;4185953;28;20131;-79
2022/01/30 10:03:38;;;;;;;53.92;7.95;;;4.70;56.80;;;;;;4169051;28;20033;-79
2022/01/30 10:05:57;;;;;;;56.22;8.18;;;4.80;56.70;;;;;;4186215;28;20024;-79
2022/01/30 10:07:58;;;;;;;75.60;7.40;;;4.70;56.80;;;;;;4190020;28;20069;-79
2022/01/30 10:10:09;;;;;;;55.63;7.65;;;4.80;56.80;;;;;;4175091;28;20464;-79
2022/01/30 10:12:19;;;;;;;49.33;8.02;;;4.80;57.20;;;;;;4199748;28;20028;-79
2022/01/30 10:14:19;;;;;;;61.88;6.78;;;4.80;57.10;;;;;;4185373;28;20036;-79
2022/01/30 10:16:20;;;;;;;56.53;8.07;;;4.80;56.60;;;;;;4190039;28;20558;-79
2022/01/30 10:18:21;;;;;;;54.92;7.03;;;4.80;55.70;;;;;;4200001;28;20030;-79
2022/01/30 10:20:24;;;;;;;60.42;7.82;;;4.90;56.30;;;;;;4166292;28;20025;-79
2022/01/30 10:22:24;;;;;;;48.35;6.88;;;4.90;56.30;;;;;;4190445;28;20608;-78
2022/01/30 10:24:26;;;;;;;50.22;6.45;;;4.90;56.00;;;;;;4185498;28;20036;-78
2022/01/30 10:26:31;;;;;;;41.08;6.70;;;4.90;56.00;;;;;;4174173;28;20498;-79
2022/01/30 10:28:32;;;;;;;59.22;7.25;;;4.90;55.50;;;;;;4155351;28;20037;-78
2022/01/30 10:30:56;;;;;;;59.22;8.43;;;4.90;55.80;;;;;;4168078;28;20031;-78
2022/01/30 10:32:56;;;;;;;48.47;7.55;;;5.00;56.10;;;;;;4184759;28;20028;-78
2022/01/30 10:35:05;;;;;;;53.47;7.05;;;5.00;56.30;;;;;;4183692;28;20498;-78
2022/01/30 10:37:19;;;;;;;50.75;7.72;;;5.00;54.90;;;;;;4186085;28;20436;-78
2022/01/30 10:39:23;;;;;;;52.53;7.22;;;5.00;54.40;;;;;;4185605;28;20101;-78
2022/01/30 10:41:31;;;;;;;51.10;6.38;;;5.00;54.70;;;;;;4167951;28;20398;-78
2022/01/30 10:43:51;;;;;;;45.30;7.43;;;5.00;55.00;;;;;;4169126;28;20063;-78
2022/01/30 10:45:52;;;;;;;46.40;6.28;;;5.00;54.10;;;;;;4185633;28;20127;-79
2022/01/30 10:48:10;;;;;;;53.50;6.35;;;5.00;54.20;;;;;;4170773;28;20623;-79
2022/01/30 10:50:16;;;;;;;56.70;7.75;;;5.00;54.10;;;;;;4185636;28;20081;-78
2022/01/30 10:52:22;;;;;;;36.13;5.50;;;5.00;54.10;;;;;;4170130;28;20536;-79
2022/01/30 10:54:26;;;;;;;58.80;6.43;;;5.10;54.80;;;;;;4188710;28;20016;-77
2022/01/30 10:56:28;;;;;;;47.03;6.22;;;5.10;54.20;;;;;;4190481;28;20390;-78
2022/01/30 10:58:29;;;;;;;45.85;6.80;;;5.10;53.50;;;;;;4186245;28;20060;-78
2022/01/30 11:00:47;;;;;;;35.30;6.85;;;5.10;52.80;;;;;;4185656;28;20036;-78
2022/01/30 11:02:48;;;;;;;51.33;6.35;;;5.10;52.80;;;;;;4191545;28;20298;-78
2022/01/30 11:04:49;;;;;;;46.72;7.05;;;5.00;53.40;;;;;;4192905;28;20032;-79
2022/01/30 11:06:50;;;;;;;38.55;5.80;;;5.10;53.30;;;;;;4191347;28;20039;-79
2022/01/30 11:08:53;;;;;;;46.28;6.35;;;5.10;53.80;;;;;;4189773;28;20036;-80
2022/01/30 11:11:53;;;;;;;49.33;5.40;;;5.10;54.40;;;;;;4170747;28;20025;-80
2022/01/30 11:13:44;;;;;;;35.45;6.82;;;5.20;54.00;;;;;;4181086;28;20036;-80
2022/01/30 11:15:54;;;;;;;42.13;6.57;;;5.20;53.20;;;;;;4191773;28;20029;-79
2022/01/30 11:17:55;;;;;;;49.80;6.78;;;5.20;53.20;;;;;;4188170;28;20414;-79
2022/01/30 11:19:57;;;;;;;52.70;6.63;;;5.20;52.10;;;;;;4186463;28;20147;-79
2022/01/30 11:22:01;;;;;;;45.20;5.25;;;5.10;51.90;;;;;;4176697;28;20029;-79
2022/01/30 11:24:02;;;;;;;45.47;6.15;;;5.10;52.40;;;;;;4190891;28;20131;-80
2022/01/30 11:26:02;;;;;;;38.85;5.10;;;5.20;52.10;;;;;;4187050;28;20028;-79
2022/01/30 11:28:04;;;;;;;30.35;5.45;;;5.20;52.50;;;;;;4174875;28;20021;-79
2022/01/30 11:30:06;;;;;;;51.47;6.15;;;5.20;54.00;;;;;;4187269;28;20040;-79
2022/01/30 11:32:07;;;;;;;45.92;5.70;;;5.20;53.40;;;;;;4187435;28;20040;-79
2022/01/30 11:34:07;;;;;;;47.20;6.13;;;5.20;52.40;;;;;;4190187;28;20028;-79